M I D A S
Marine Information and Data Acquisition System
Tripno 754 of the Zeeleeuw from 2004-07-30 06:45:21 to 2004-07-30 12:54:01
Back to CruiseResearch ActivitiesStationsMapUnderway DataData graphs

EquipmentUnitsComments
TimeDGPSUTC
LatitudeDGPSDM.mWGS84
LongitudeDGPSDM.mWGS84
SpeedMeteo Stationm/sRelative wind speed
DirectionMeteo StationdegRelative wind direction
TemperatureMeteo Stationdeg CelciusAir temperature
PressureMeteo StationPaAtmospheric pressure
HumidityMeteo Station%Relative humidity
Missing or incorrect values are displayed as -999
Metereological data collected by the RV Zeeleeuw from 2004-07-30 06:45:21 to 2004-07-30 12:54:01
                                                                                    Next 1000 lines
Time Latitude Longitude Speed Direction Temperature Pressure Humidity
2004-07-30 06:45:29 51°16.303 2°53.304 12.5 345 19.3 101740 78
2004-07-30 06:45:34 51°16.319 2°53.289 13.9 341 19.3 101740 78
2004-07-30 06:45:38 51°16.331 2°53.277 14.5 339 19.3 101740 78
2004-07-30 06:45:45 51°16.353 2°53.255 13.6 341 19.3 101730 78
2004-07-30 06:45:49 51°16.366 2°53.244 12.6 341 19.3 101730 78
2004-07-30 06:45:54 51°16.381 2°53.229 13.3 341 19.3 101730 78
2004-07-30 06:45:59 51°16.398 2°53.215 12.1 342 19.3 101730 78
2004-07-30 06:46:03 51°16.41 2°53.204 12.9 344 19.3 101730 78
2004-07-30 06:46:10 51°16.433 2°53.187 12.5 344 19.3 101730 78
2004-07-30 06:46:14 51°16.446 2°53.177 13.2 344 19.3 101740 78
2004-07-30 06:46:19 51°16.463 2°53.164 12.9 343 19.3 101740 78
2004-07-30 06:46:23 51°16.476 2°53.154 13 341 19.3 101730 78
2004-07-30 06:46:29 51°16.495 2°53.138 11.6 341 19.3 101730 78
2004-07-30 06:46:34 51°16.51 2°53.124 11.8 341 19.3 101740 78
2004-07-30 06:46:39 51°16.526 2°53.11 12.1 347 19.3 101740 78
2004-07-30 06:46:44 51°16.542 2°53.096 13.2 346 19.3 101740 78
2004-07-30 06:46:48 51°16.554 2°53.085 12.5 345 19.3 101740 78
2004-07-30 06:46:54 51°16.573 2°53.068 12.2 343 19.3 101730 78
2004-07-30 06:46:59 51°16.588 2°53.054 12 349 19.3 101730 78
2004-07-30 06:47:03 51°16.601 2°53.043 13 345 19.3 101730 78
2004-07-30 06:47:09 51°16.62 2°53.025 12.8 347 19.3 101730 78
2004-07-30 06:47:14 51°16.635 2°53.011 12.8 347 19.3 101730 79
2004-07-30 06:47:19 51°16.651 2°52.997 12.8 348 19.3 101730 79
2004-07-30 06:47:23 51°16.663 2°52.986 13.4 346 19.3 101730 79
2004-07-30 06:47:29 51°16.682 2°52.97 12.6 347 19.3 101730 79
2004-07-30 06:47:34 51°16.698 2°52.956 12.7 348 19.3 101730 79
2004-07-30 06:47:38 51°16.71 2°52.945 11.9 341 19.3 101730 79
2004-07-30 06:47:43 51°16.726 2°52.931 11.6 345 19.3 101730 78
2004-07-30 06:47:49 51°16.744 2°52.915 12.5 345 19.3 101730 78
2004-07-30 06:47:54 51°16.76 2°52.902 12.9 341 19.3 101730 78
2004-07-30 06:47:59 51°16.775 2°52.888 4.4 343 19.3 101730 78
2004-07-30 06:48:03 51°16.788 2°52.877 11.9 346 19.3 101740 79
2004-07-30 06:48:09 51°16.806 2°52.86 12.5 345 19.3 101740 79
2004-07-30 06:48:14 51°16.821 2°52.846 13.1 342 19.3 101730 79
2004-07-30 06:48:18 51°16.832 2°52.835 12.4 346 19.3 101730 79
2004-07-30 06:48:24 51°16.85 2°52.817 12 345 19.3 101730 79
2004-07-30 06:48:29 51°16.865 2°52.802 11.5 348 19.3 101730 79
2004-07-30 06:48:34 51°16.879 2°52.786 12.3 350 19.3 101740 79
2004-07-30 06:48:39 51°16.894 2°52.771 12.2 347 19.3 101740 79
2004-07-30 06:48:44 51°16.908 2°52.756 12.1 348 19.3 101730 79
2004-07-30 06:48:49 51°16.923 2°52.741 13.3 349 19.3 101730 79
2004-07-30 06:48:54 51°16.938 2°52.726 12.5 349 19.3 101730 79
2004-07-30 06:48:59 51°16.953 2°52.712 12.4 348 19.3 101730 79
2004-07-30 06:49:03 51°16.965 2°52.7 12.5 347 19.3 101730 79
2004-07-30 06:49:09 51°16.984 2°52.683 13 347 19.3 101730 79
2004-07-30 06:49:14 51°16.999 2°52.669 13.2 349 19.4 101740 79
2004-07-30 06:49:19 51°17.015 2°52.655 13.4 347 19.4 101740 79
2004-07-30 06:49:23 51°17.027 2°52.644 12.1 350 19.3 101730 79
2004-07-30 06:49:29 51°17.046 2°52.626 13.1 348 19.3 101730 79
2004-07-30 06:49:34 51°17.061 2°52.611 13.6 347 19.3 101740 79
2004-07-30 06:49:39 51°17.076 2°52.596 12.3 352 19.3 101740 79
2004-07-30 06:49:43 51°17.088 2°52.584 13.2 347 19.3 101720 79
2004-07-30 06:49:49 51°17.106 2°52.566 13.1 352 19.3 101720 79
2004-07-30 06:49:54 51°17.12 2°52.551 13 351 19.3 101730 79
2004-07-30 06:49:59 51°17.135 2°52.536 13.6 351 19.3 101730 79
2004-07-30 06:50:03 51°17.147 2°52.524 13.3 349 19.3 101740 79
2004-07-30 06:50:10 51°17.168 2°52.503 12.7 348 19.3 101740 79
2004-07-30 06:50:14 51°17.181 2°52.491 12.6 351 19.3 101730 79
2004-07-30 06:50:19 51°17.196 2°52.477 12.6 353 19.3 101730 79
2004-07-30 06:50:24 51°17.211 2°52.462 13 346 19.3 101730 78
2004-07-30 06:50:29 51°17.226 2°52.448 13.4 349 19.3 101730 78
2004-07-30 06:50:34 51°17.241 2°52.433 12.8 353 19.3 101730 79
2004-07-30 06:50:39 51°17.256 2°52.418 13.3 348 19.3 101730 79
2004-07-30 06:50:43 51°17.269 2°52.406 12.5 351 19.3 101740 79
2004-07-30 06:50:49 51°17.287 2°52.388 12.4 350 19.3 101740 79
2004-07-30 06:50:54 51°17.302 2°52.373 12.7 352 19.3 101730 79
2004-07-30 06:50:59 51°17.317 2°52.357 12.2 353 19.3 101730 79
2004-07-30 06:51:04 51°17.332 2°52.342 13.4 351 19.3 101730 79
2004-07-30 06:51:09 51°17.347 2°52.327 13.5 348 19.3 101730 79
2004-07-30 06:51:14 51°17.362 2°52.313 13 349 19.3 101740 79
2004-07-30 06:51:19 51°17.378 2°52.298 12.8 352 19.3 101740 79
2004-07-30 06:51:23 51°17.39 2°52.286 12.3 349 19.3 101740 79
2004-07-30 06:51:29 51°17.408 2°52.268 12.3 347 19.3 101740 79
2004-07-30 06:51:34 51°17.423 2°52.254 11.9 350 19.3 101730 79
2004-07-30 06:51:39 51°17.438 2°52.239 12.4 347 19.3 101730 79
2004-07-30 06:51:44 51°17.454 2°52.224 12.1 350 19.3 101740 79
2004-07-30 06:51:49 51°17.469 2°52.209 12.6 349 19.3 101740 79
2004-07-30 06:51:54 51°17.484 2°52.194 12.7 354 19.3 101730 79
2004-07-30 06:51:59 51°17.498 2°52.179 13.3 351 19.3 101730 79
2004-07-30 06:52:03 51°17.51 2°52.167 12.5 352 19.3 101730 79
2004-07-30 06:52:09 51°17.528 2°52.148 11.9 349 19.3 101730 79
2004-07-30 06:52:14 51°17.543 2°52.133 12.5 351 19.3 101740 79
2004-07-30 06:52:19 51°17.558 2°52.118 12.7 352 19.3 101740 79
2004-07-30 06:52:24 51°17.573 2°52.102 11.1 354 19.3 101730 79
2004-07-30 06:52:29 51°17.588 2°52.087 12.3 350 19.3 101730 79
2004-07-30 06:52:34 51°17.603 2°52.072 12.6 352 19.3 101730 79
2004-07-30 06:52:39 51°17.618 2°52.056 12.6 347 19.3 101730 79
2004-07-30 06:52:43 51°17.63 2°52.044 12.3 349 19.3 101730 79
2004-07-30 06:52:49 51°17.648 2°52.026 11.7 350 19.3 101730 79
2004-07-30 06:52:54 51°17.663 2°52.011 12.9 352 19.3 101740 79
2004-07-30 06:52:59 51°17.678 2°51.996 12.5 350 19.3 101740 79
2004-07-30 06:53:03 51°17.69 2°51.984 12.1 347 19.3 101740 79
2004-07-30 06:53:09 51°17.708 2°51.966 12.7 351 19.3 101740 79
2004-07-30 06:53:14 51°17.723 2°51.951 12.2 348 19.3 101730 79
2004-07-30 06:53:19 51°17.738 2°51.936 11.6 349 19.3 101730 79
2004-07-30 06:53:23 51°17.751 2°51.924 12.6 349 19.3 101730 79
2004-07-30 06:53:29 51°17.768 2°51.906 12.3 348 19.3 101730 79
2004-07-30 06:53:34 51°17.784 2°51.892 12.5 346 19.3 101730 79
2004-07-30 06:53:39 51°17.799 2°51.878 12.7 344 19.3 101730 79
2004-07-30 06:53:44 51°17.815 2°51.865 11.9 340 19.3 101740 79
2004-07-30 06:53:49 51°17.831 2°51.855 11.6 339 19.3 101740 79
2004-07-30 06:53:54 51°17.847 2°51.846 11.7 339 19.3 101740 80
2004-07-30 06:53:59 51°17.864 2°51.839 11.9 344 19.3 101740 80
2004-07-30 06:54:03 51°17.878 2°51.834 11.1 340 19.3 101730 80
2004-07-30 06:54:09 51°17.898 2°51.828 12.5 337 19.3 101730 80
2004-07-30 06:54:14 51°17.915 2°51.823 11.4 337 19.3 101730 80
2004-07-30 06:54:19 51°17.932 2°51.819 11.5 336 19.3 101730 80
2004-07-30 06:54:24 51°17.949 2°51.818 11.9 333 19.3 101740 80
2004-07-30 06:54:29 51°17.966 2°51.818 10.7 335 19.3 101740 80
2004-07-30 06:54:34 51°17.983 2°51.82 11.4 335 19.3 101730 80
2004-07-30 06:54:39 51°18 2°51.823 10.3 327 19.3 101730 80
2004-07-30 06:54:43 51°18.013 2°51.827 10.5 325 19.3 101730 80
2004-07-30 06:54:49 51°18.033 2°51.835 9.4 327 19.3 101730 80
2004-07-30 06:54:54 51°18.049 2°51.844 10 325 19.3 101730 80
2004-07-30 06:54:59 51°18.064 2°51.855 8.8 324 19.3 101730 80
2004-07-30 06:55:05 51°18.082 2°51.87 10.3 321 19.3 101730 80
2004-07-30 06:55:09 51°18.093 2°51.882 9.6 318 19.3 101730 80
2004-07-30 06:55:14 51°18.107 2°51.897 10.2 316 19.3 101730 80
2004-07-30 06:55:19 51°18.12 2°51.914 8.8 319 19.3 101730 80
2004-07-30 06:55:23 51°18.129 2°51.929 8.1 316 19.2 101740 80
2004-07-30 06:55:29 51°18.143 2°51.952 7.5 315 19.2 101740 80
2004-07-30 06:55:34 51°18.153 2°51.973 7.3 311 19.2 101740 79
2004-07-30 06:55:39 51°18.163 2°51.995 6.8 313 19.2 101740 79
2004-07-30 06:55:43 51°18.17 2°52.013 6.6 309 19.2 101740 79
2004-07-30 06:55:49 51°18.18 2°52.041 6.4 312 19.2 101740 79
2004-07-30 06:55:54 51°18.188 2°52.065 6.3 227 19.2 101750 80
2004-07-30 06:55:59 51°18.195 2°52.09 7 309 19.2 101750 80
2004-07-30 06:56:03 51°18.2 2°52.109 5.9 229 19.2 101750 80
2004-07-30 06:56:08 51°18.207 2°52.134 6.2 227 19.2 101750 80
2004-07-30 06:56:14 51°18.215 2°52.164 6.2 43 19.2 101750 80
2004-07-30 06:56:19 51°18.221 2°52.189 6.8 43 19.2 101750 80
2004-07-30 06:56:23 51°18.227 2°52.209 6 43 19.2 101750 80
2004-07-30 06:56:29 51°18.235 2°52.239 6.9 42 19.2 101750 80
2004-07-30 06:56:34 51°18.241 2°52.264 5.9 313 19.2 101760 80
2004-07-30 06:56:39 51°18.247 2°52.289 6.8 315 19.2 101760 80
2004-07-30 06:56:43 51°18.252 2°52.31 6.6 312 19.2 101750 80
2004-07-30 06:56:49 51°18.259 2°52.34 6.5 313 19.2 101750 80
2004-07-30 06:56:54 51°18.265 2°52.366 5.9 306 19.2 101750 80
2004-07-30 06:56:59 51°18.271 2°52.391 5.8 318 19.2 101750 80
2004-07-30 06:57:04 51°18.276 2°52.417 6 313 19.2 101750 80
2004-07-30 06:57:09 51°18.282 2°52.443 5.9 308 19.2 101750 80
2004-07-30 06:57:14 51°18.288 2°52.469 6.1 307 19.2 101750 80
2004-07-30 06:57:19 51°18.293 2°52.494 5.1 309 19.2 101750 80
2004-07-30 06:57:23 51°18.298 2°52.515 5.5 308 19.2 101750 80
2004-07-30 06:57:29 51°18.305 2°52.546 6.1 310 19.2 101750 80
2004-07-30 06:57:34 51°18.311 2°52.571 5.6 306 19.2 101750 80
2004-07-30 06:57:39 51°18.317 2°52.597 6.1 307 19.2 101750 80
2004-07-30 06:57:44 51°18.323 2°52.623 6.3 306 19.2 101760 80
2004-07-30 06:57:49 51°18.329 2°52.648 5.3 313 19.2 101760 80
2004-07-30 06:57:54 51°18.335 2°52.674 5.6 305 19.2 101750 80
2004-07-30 06:57:59 51°18.341 2°52.7 6.4 308 19.2 101750 80
2004-07-30 06:58:03 51°18.345 2°52.721 6.2 304 19.2 101760 80
2004-07-30 06:58:09 51°18.352 2°52.752 5.9 303 19.2 101760 80
2004-07-30 06:58:14 51°18.358 2°52.778 5.8 321 19.2 101750 80
2004-07-30 06:58:19 51°18.364 2°52.804 6.4 307 19.2 101750 80
2004-07-30 06:58:23 51°18.369 2°52.825 5.9 303 19.2 101760 80
2004-07-30 06:58:29 51°18.376 2°52.856 5.9 227 19.2 101760 80
2004-07-30 06:58:34 51°18.382 2°52.882 5.4 315 19.2 101760 80
2004-07-30 06:58:39 51°18.387 2°52.908 6.3 302 19.2 101760 80
2004-07-30 06:58:43 51°18.392 2°52.929 5.9 303 19.2 101760 81
2004-07-30 06:58:49 51°18.399 2°52.959 5.7 300 19.2 101760 81
2004-07-30 06:58:54 51°18.405 2°52.985 5.7 313 19.2 101760 81
2004-07-30 06:58:59 51°18.41 2°53.011 6.6 302 19.2 101760 81
2004-07-30 06:59:03 51°18.415 2°53.032 6.5 303 19.2 101760 81
2004-07-30 06:59:09 51°18.422 2°53.063 6.1 304 19.2 101760 81
2004-07-30 06:59:14 51°18.428 2°53.089 5.7 303 19.2 101760 80
2004-07-30 06:59:19 51°18.434 2°53.115 5.6 300 19.2 101760 80
2004-07-30 06:59:23 51°18.438 2°53.135 5.7 305 19.2 101760 80
2004-07-30 06:59:29 51°18.445 2°53.167 5.4 307 19.2 101760 80
2004-07-30 06:59:34 51°18.451 2°53.193 5.5 307 19.2 101760 81
2004-07-30 06:59:39 51°18.457 2°53.218 5.6 302 19.2 101760 81
2004-07-30 06:59:43 51°18.462 2°53.239 5.5 298 19.2 101760 81
2004-07-30 06:59:49 51°18.469 2°53.27 5.9 303 19.2 101760 81
2004-07-30 06:59:54 51°18.474 2°53.296 4.7 304 19.2 101760 81
2004-07-30 06:59:59 51°18.48 2°53.322 6.1 297 19.2 101760 81
2004-07-30 07:00:04 51°18.486 2°53.347 6.1 295 19.2 101760 81
2004-07-30 07:00:10 51°18.493 2°53.379 6.1 297 19.2 101760 81
2004-07-30 07:00:14 51°18.497 2°53.399 5.6 309 19.2 101760 81
2004-07-30 07:00:19 51°18.503 2°53.425 5.7 306 19.2 101760 81
2004-07-30 07:00:24 51°18.509 2°53.451 5.9 304 19.2 101760 81
2004-07-30 07:00:29 51°18.515 2°53.477 5.5 294 19.2 101760 81
2004-07-30 07:00:34 51°18.52 2°53.503 5.2 304 19.2 101770 81
2004-07-30 07:00:39 51°18.526 2°53.529 5 297 19.2 101770 81
2004-07-30 07:00:44 51°18.532 2°53.555 6 296 19.3 101770 81
2004-07-30 07:00:49 51°18.538 2°53.58 6.4 294 19.3 101770 81
2004-07-30 07:00:54 51°18.543 2°53.606 6.5 296 19.3 101770 81
2004-07-30 07:00:59 51°18.549 2°53.632 6.4 294 19.3 101770 81
2004-07-30 07:01:04 51°18.555 2°53.658 6.6 290 19.3 101770 81
2004-07-30 07:01:10 51°18.562 2°53.689 5.7 291 19.3 101770 81
2004-07-30 07:01:14 51°18.567 2°53.709 4.8 300 19.3 101770 81
2004-07-30 07:01:19 51°18.573 2°53.735 6.8 292 19.3 101770 81
2004-07-30 07:01:23 51°18.578 2°53.755 6.8 292 19.2 101770 81
2004-07-30 07:01:29 51°18.585 2°53.786 6.3 290 19.2 101770 81
2004-07-30 07:01:34 51°18.591 2°53.811 6 303 19.2 101770 81
2004-07-30 07:01:39 51°18.598 2°53.837 5.9 299 19.2 101770 81
2004-07-30 07:01:44 51°18.604 2°53.862 5.7 289 19.3 101780 81
2004-07-30 07:01:50 51°18.612 2°53.893 4.9 294 19.3 101780 81
2004-07-30 07:01:54 51°18.617 2°53.913 5.6 297 19.3 101770 81
2004-07-30 07:01:59 51°18.624 2°53.938 6.1 294 19.3 101770 81
2004-07-30 07:02:04 51°18.63 2°53.963 6 291 19.3 101770 81
2004-07-30 07:02:09 51°18.637 2°53.989 6.4 290 19.3 101770 81
2004-07-30 07:02:14 51°18.643 2°54.014 6.3 295 19.3 101780 81
2004-07-30 07:02:19 51°18.65 2°54.039 6.2 289 19.3 101780 81
2004-07-30 07:02:24 51°18.656 2°54.065 6 287 19.3 101780 82
2004-07-30 07:02:30 51°18.663 2°54.095 6.1 284 19.3 101780 82
2004-07-30 07:02:34 51°18.668 2°54.116 5.7 290 19.3 101780 82
2004-07-30 07:02:39 51°18.675 2°54.141 5.1 293 19.3 101780 82
2004-07-30 07:02:43 51°18.68 2°54.161 6.4 282 19.3 101780 82
2004-07-30 07:02:49 51°18.688 2°54.191 6.1 281 19.3 101780 82
2004-07-30 07:02:54 51°18.695 2°54.216 7.2 281 19.3 101780 82
2004-07-30 07:02:59 51°18.702 2°54.242 7.5 278 19.3 101780 82
2004-07-30 07:03:03 51°18.707 2°54.262 6.8 276 19.3 101780 82
2004-07-30 07:03:09 51°18.715 2°54.292 6.4 281 19.3 101780 82
2004-07-30 07:03:14 51°18.721 2°54.317 6.8 275 19.3 101780 82
2004-07-30 07:03:19 51°18.727 2°54.342 6 283 19.3 101780 82
2004-07-30 07:03:24 51°18.734 2°54.368 5.9 281 19.3 101790 82
2004-07-30 07:03:30 51°18.741 2°54.398 5.9 287 19.3 101790 82
2004-07-30 07:03:34 51°18.746 2°54.418 6.5 285 19.3 101790 82
2004-07-30 07:03:39 51°18.753 2°54.444 7.1 277 19.3 101790 82
2004-07-30 07:03:43 51°18.758 2°54.464 7.2 278 19.3 101790 82
2004-07-30 07:03:49 51°18.765 2°54.494 6.9 277 19.3 101790 82
2004-07-30 07:03:54 51°18.772 2°54.519 7.2 279 19.3 101790 82
2004-07-30 07:03:59 51°18.778 2°54.544 7.7 276 19.3 101790 82
2004-07-30 07:04:03 51°18.784 2°54.564 7 283 19.3 101790 82
2004-07-30 07:04:09 51°18.791 2°54.595 7.5 273 19.3 101790 82
2004-07-30 07:04:14 51°18.797 2°54.62 8 265 19.3 101790 82
2004-07-30 07:04:19 51°18.803 2°54.646 6 276 19.3 101790 82
2004-07-30 07:04:23 51°18.807 2°54.666 5.8 278 19.3 101790 82
2004-07-30 07:04:29 51°18.815 2°54.697 6.8 275 19.3 101790 82
2004-07-30 07:04:34 51°18.821 2°54.722 7 277 19.3 101790 82
2004-07-30 07:04:39 51°18.827 2°54.748 6.8 279 19.3 101790 82
2004-07-30 07:04:43 51°18.832 2°54.768 8 276 19.3 101790 82
2004-07-30 07:04:50 51°18.841 2°54.803 5.8 295 19.3 101790 82
2004-07-30 07:04:54 51°18.847 2°54.823 5.7 278 19.3 101790 82
2004-07-30 07:04:59 51°18.853 2°54.848 6 286 19.3 101790 82
2004-07-30 07:05:04 51°18.86 2°54.873 6.3 278 19.3 101790 82
2004-07-30 07:05:10 51°18.868 2°54.902 6 279 19.3 101790 82
2004-07-30 07:05:14 51°18.873 2°54.922 6.8 271 19.3 101790 82
2004-07-30 07:05:19 51°18.88 2°54.948 6.9 276 19.3 101790 82
2004-07-30 07:05:23 51°18.885 2°54.968 7.5 274 19.3 101790 82
2004-07-30 07:05:29 51°18.892 2°54.998 8 268 19.3 101790 82
2004-07-30 07:05:34 51°18.898 2°55.023 7 288 19.3 101790 82
2004-07-30 07:05:39 51°18.905 2°55.049 7.4 278 19.3 101790 82
2004-07-30 07:05:43 51°18.909 2°55.069 7.5 276 19.3 101790 82
2004-07-30 07:05:49 51°18.917 2°55.099 6.9 281 19.3 101790 82
2004-07-30 07:05:54 51°18.923 2°55.125 6.8 271 19.3 101790 82
2004-07-30 07:05:59 51°18.929 2°55.15 7.2 279 19.3 101790 82
2004-07-30 07:06:04 51°18.936 2°55.175 6.7 279 19.3 101790 82
2004-07-30 07:06:09 51°18.943 2°55.2 6.4 283 19.3 101790 82
2004-07-30 07:06:14 51°18.949 2°55.225 5.9 282 19.3 101790 82
2004-07-30 07:06:19 51°18.956 2°55.25 6.8 285 19.3 101790 82
2004-07-30 07:06:23 51°18.961 2°55.27 6.4 290 19.3 101790 82
2004-07-30 07:06:29 51°18.969 2°55.3 6.8 274 19.3 101790 82
2004-07-30 07:06:34 51°18.975 2°55.325 7 273 19.3 101790 82
2004-07-30 07:06:39 51°18.981 2°55.35 6.8 288 19.3 101790 82
2004-07-30 07:06:44 51°18.988 2°55.376 7.8 282 19.3 101790 82
2004-07-30 07:06:50 51°18.996 2°55.406 7.1 278 19.3 101790 82
2004-07-30 07:06:54 51°19.001 2°55.426 7.5 277 19.3 101790 82
2004-07-30 07:06:59 51°19.008 2°55.451 5.7 290 19.3 101790 82
2004-07-30 07:07:04 51°19.014 2°55.476 6 284 19.3 101790 82
2004-07-30 07:07:09 51°19.021 2°55.502 7.3 282 19.3 101790 82
2004-07-30 07:07:14 51°19.027 2°55.527 6.7 280 19.3 101780 82
2004-07-30 07:07:19 51°19.033 2°55.553 6.8 296 19.3 101780 82
2004-07-30 07:07:24 51°19.039 2°55.578 7 289 19.3 101780 82
2004-07-30 07:07:29 51°19.046 2°55.604 7 279 19.3 101780 82
2004-07-30 07:07:34 51°19.052 2°55.629 6.9 283 19.3 101790 82
2004-07-30 07:07:39 51°19.058 2°55.655 6.3 286 19.3 101790 82
2004-07-30 07:07:43 51°19.063 2°55.675 7.4 287 19.3 101790 82
2004-07-30 07:07:49 51°19.071 2°55.706 7 285 19.3 101790 82
2004-07-30 07:07:54 51°19.077 2°55.731 6.1 285 19.3 101780 82
2004-07-30 07:07:59 51°19.084 2°55.757 6.6 289 19.3 101780 82
2004-07-30 07:08:03 51°19.089 2°55.777 6.7 293 19.3 101780 82
2004-07-30 07:08:09 51°19.097 2°55.808 6.3 295 19.3 101780 82
2004-07-30 07:08:14 51°19.103 2°55.833 5.8 290 19.3 101780 82
2004-07-30 07:08:19 51°19.11 2°55.859 7.5 297 19.3 101780 82
2004-07-30 07:08:24 51°19.116 2°55.884 7.4 293 19.3 101780 82
2004-07-30 07:08:29 51°19.122 2°55.91 6.4 301 19.3 101780 82
2004-07-30 07:08:34 51°19.129 2°55.935 6.8 296 19.3 101780 82
2004-07-30 07:08:39 51°19.135 2°55.96 7.4 289 19.3 101780 82
2004-07-30 07:08:44 51°19.142 2°55.985 7 298 19.3 101780 82
2004-07-30 07:08:49 51°19.148 2°56.01 6.8 298 19.3 101780 82
2004-07-30 07:08:54 51°19.155 2°56.036 7.2 296 19.3 101780 82
2004-07-30 07:08:59 51°19.161 2°56.061 7.2 296 19.3 101780 82
2004-07-30 07:09:04 51°19.168 2°56.087 6.8 300 19.3 101780 82
2004-07-30 07:09:09 51°19.174 2°56.113 6.7 296 19.3 101780 82
2004-07-30 07:09:14 51°19.18 2°56.139 6.6 306 19.3 101780 82
2004-07-30 07:09:19 51°19.186 2°56.165 7 301 19.3 101780 82
2004-07-30 07:09:23 51°19.191 2°56.185 7.2 294 19.3 101770 82
2004-07-30 07:09:28 51°19.197 2°56.211 6.9 299 19.3 101770 82
2004-07-30 07:09:34 51°19.204 2°56.241 7.8 299 19.3 101770 82
2004-07-30 07:09:39 51°19.211 2°56.267 7 302 19.3 101770 82
2004-07-30 07:09:44 51°19.218 2°56.292 7.3 308 19.3 101770 82
2004-07-30 07:09:49 51°19.224 2°56.317 7.9 300 19.3 101770 82
2004-07-30 07:09:54 51°19.23 2°56.342 7.1 302 19.3 101770 82
2004-07-30 07:09:59 51°19.237 2°56.368 7.5 297 19.3 101770 82
2004-07-30 07:10:05 51°19.244 2°56.399 7.2 292 19.3 101770 82
2004-07-30 07:10:09 51°19.249 2°56.419 6.6 298 19.3 101770 82
2004-07-30 07:10:14 51°19.255 2°56.445 6.3 305 19.3 101770 82
2004-07-30 07:10:19 51°19.261 2°56.47 7.3 302 19.3 101770 82
2004-07-30 07:10:24 51°19.267 2°56.496 7.4 298 19.3 101770 82
2004-07-30 07:10:29 51°19.273 2°56.521 7.4 294 19.3 101770 82
2004-07-30 07:10:34 51°19.279 2°56.547 7.2 298 19.3 101770 82
2004-07-30 07:10:39 51°19.285 2°56.572 7.3 298 19.3 101770 82
2004-07-30 07:10:43 51°19.29 2°56.593 6.7 297 19.3 101770 82
2004-07-30 07:10:49 51°19.297 2°56.623 7 299 19.3 101770 82
2004-07-30 07:10:54 51°19.303 2°56.649 6.8 299 19.3 101770 82
2004-07-30 07:10:59 51°19.309 2°56.674 6.6 294 19.3 101770 82
2004-07-30 07:11:03 51°19.314 2°56.694 6.9 304 19.3 101770 82
2004-07-30 07:11:09 51°19.321 2°56.722 6.5 296 19.3 101770 82
2004-07-30 07:11:15 51°19.326 2°56.748 6.9 285 19.3 101770 82
2004-07-30 07:11:19 51°19.329 2°56.763 6.3 276 19.3 101770 82
2004-07-30 07:11:24 51°19.332 2°56.781 6 271 19.3 101770 82
2004-07-30 07:11:30 51°19.333 2°56.802 4 234 19.3 101770 82
2004-07-30 07:11:34 51°19.332 2°56.815 4.6 242 19.3 101770 82
2004-07-30 07:11:39 51°19.329 2°56.829 3.8 228 19.3 101770 82
2004-07-30 07:11:43 51°19.327 2°56.84 3.6 221 19.3 101780 82
2004-07-30 07:11:49 51°19.321 2°56.854 2.4 187 19.3 101780 82
2004-07-30 07:11:54 51°19.316 2°56.864 2.9 177 19.3 101780 82
2004-07-30 07:11:59 51°19.31 2°56.873 4.3 160 19.3 101780 82
2004-07-30 07:12:03 51°19.305 2°56.879 4.9 153 19.3 101780 82
2004-07-30 07:12:09 51°19.297 2°56.886 5.5 143 19.3 101780 82
2004-07-30 07:12:14 51°19.29 2°56.89 5.2 136 19.3 101780 82
2004-07-30 07:12:19 51°19.282 2°56.894 5.4 136 19.3 101780 82
2004-07-30 07:12:23 51°19.276 2°56.895 6 133 19.3 101780 82
2004-07-30 07:12:29 51°19.267 2°56.897 7 124 19.3 101780 82
2004-07-30 07:12:34 51°19.26 2°56.896 7.7 126 19.3 101780 82
2004-07-30 07:12:39 51°19.252 2°56.895 7.3 107 19.3 101780 82
2004-07-30 07:12:45 51°19.244 2°56.892 7.2 111 19.3 101780 82
2004-07-30 07:12:49 51°19.238 2°56.889 8.1 102 19.3 101780 82
2004-07-30 07:12:54 51°19.231 2°56.885 8.4 105 19.3 101770 82
2004-07-30 07:12:59 51°19.225 2°56.881 8.9 90 19.3 101770 82
2004-07-30 07:13:04 51°19.218 2°56.875 9.5 87 19.3 101770 82
2004-07-30 07:13:09 51°19.212 2°56.869 8.3 84 19.3 101770 82
2004-07-30 07:13:14 51°19.206 2°56.862 9.1 85 19.3 101780 83
2004-07-30 07:13:19 51°19.201 2°56.855 7 75 19.3 101780 83
2004-07-30 07:13:23 51°19.197 2°56.848 8 67 19.3 101780 83
2004-07-30 07:13:30 51°19.191 2°56.837 10.2 58 19.3 101780 83
2004-07-30 07:13:34 51°19.187 2°56.83 9.8 54 19.3 101770 82
2004-07-30 07:13:39 51°19.183 2°56.821 8.9 49 19.3 101770 82
2004-07-30 07:13:43 51°19.181 2°56.813 9.7 45 19.3 101770 82
2004-07-30 07:13:48 51°19.178 2°56.803 10.2 41 19.3 101770 82
2004-07-30 07:13:54 51°19.175 2°56.79 10.3 34 19.3 101770 82
2004-07-30 07:13:59 51°19.173 2°56.779 10.2 24 19.3 101770 82
2004-07-30 07:14:05 51°19.172 2°56.766 10.4 23 19.3 101770 82
2004-07-30 07:14:09 51°19.172 2°56.757 10 14 19.3 101770 82
2004-07-30 07:14:15 51°19.173 2°56.744 10.1 17 19.2 101760 82
2004-07-30 07:14:19 51°19.173 2°56.736 10 9 19.2 101760 82
2004-07-30 07:14:25 51°19.174 2°56.725 10.7 11 19.2 101770 82
2004-07-30 07:14:29 51°19.175 2°56.717 10.4 1 19.2 101770 82
2004-07-30 07:14:34 51°19.176 2°56.708 9.4 6 19.2 101770 82
2004-07-30 07:14:39 51°19.178 2°56.698 10.7 8 19.2 101770 82
2004-07-30 07:14:45 51°19.179 2°56.687 10.2 6 19.2 101770 82
2004-07-30 07:14:49 51°19.18 2°56.68 10.6 7 19.2 101770 82
2004-07-30 07:14:54 51°19.181 2°56.671 10.5 9 19.3 101760 82
2004-07-30 07:14:59 51°19.182 2°56.662 10.5 18 19.3 101760 82
2004-07-30 07:15:04 51°19.182 2°56.652 10.6 23 19.2 101770 82
2004-07-30 07:15:09 51°19.182 2°56.643 9.9 24 19.2 101770 82
2004-07-30 07:15:14 51°19.181 2°56.633 10.6 31 19.2 101770 82
2004-07-30 07:15:19 51°19.18 2°56.624 9.9 36 19.2 101770 82
2004-07-30 07:15:23 51°19.179 2°56.618 10.1 40 19.3 101770 82
2004-07-30 07:15:30 51°19.176 2°56.609 11 44 19.3 101770 82
2004-07-30 07:15:34 51°19.175 2°56.604 10.7 49 19.3 101760 82
2004-07-30 07:15:39 51°19.173 2°56.6 10 57 19.3 101760 82
2004-07-30 07:15:43 51°19.172 2°56.597 9.8 58 19.3 101770 82
2004-07-30 07:15:49 51°19.17 2°56.593 9.6 66 19.3 101770 82
2004-07-30 07:15:54 51°19.168 2°56.591 9 66 19.2 101770 82
2004-07-30 07:15:59 51°19.166 2°56.589 8.4 70 19.2 101770 82
2004-07-30 07:16:04 51°19.164 2°56.588 7.3 72 19.2 101760 81
2004-07-30 07:16:09 51°19.163 2°56.586 8.3 79 19.2 101760 81
2004-07-30 07:16:14 51°19.161 2°56.585 8.2 79 19.2 101760 81
2004-07-30 07:16:19 51°19.159 2°56.583 10.6 87 19.2 101760 81
2004-07-30 07:16:25 51°19.157 2°56.582 10.1 88 19.2 101760 81
2004-07-30 07:16:30 51°19.155 2°56.58 9.5 94 19.2 101760 81
2004-07-30 07:16:34 51°19.153 2°56.58 9.7 95 19.2 101770 81
2004-07-30 07:16:39 51°19.152 2°56.578 9.1 99 19.2 101770 81
2004-07-30 07:16:43 51°19.15 2°56.577 9.5 97 19.2 101760 81
2004-07-30 07:16:49 51°19.148 2°56.576 9.5 99 19.2 101760 81
2004-07-30 07:16:54 51°19.146 2°56.574 9 100 19.1 101760 81
2004-07-30 07:16:59 51°19.144 2°56.573 9.3 111 19.1 101760 81
2004-07-30 07:17:03 51°19.142 2°56.572 8.8 106 19.1 101770 80
2004-07-30 07:17:09 51°19.14 2°56.571 9.4 110 19.1 101770 80
2004-07-30 07:17:14 51°19.138 2°56.57 9 111 19.1 101760 80
2004-07-30 07:17:19 51°19.136 2°56.568 8.2 106 19.1 101760 80
2004-07-30 07:17:23 51°19.134 2°56.567 8.2 111 19.1 101760 81
2004-07-30 07:17:29 51°19.132 2°56.566 8.6 112 19.1 101760 81
2004-07-30 07:17:34 51°19.13 2°56.564 8.6 115 19.1 101770 81
2004-07-30 07:17:39 51°19.128 2°56.563 8.1 113 19.1 101770 81
2004-07-30 07:17:44 51°19.125 2°56.562 7.8 118 19.1 101770 81
2004-07-30 07:17:49 51°19.123 2°56.561 7.3 122 19.1 101770 81
2004-07-30 07:17:54 51°19.121 2°56.56 7.5 123 19.1 101770 81
2004-07-30 07:17:59 51°19.119 2°56.558 6.5 120 19.1 101770 81
2004-07-30 07:18:05 51°19.117 2°56.557 6.5 122 19.2 101770 81
2004-07-30 07:18:07 51°19.116 2°56.556 7.7 120 19.2 101770 81
2004-07-30 07:18:14 51°19.113 2°56.555 7.6 117 19.2 101770 81
2004-07-30 07:18:19 51°19.111 2°56.553 7.8 128 19.2 101770 81
2004-07-30 07:18:24 51°19.108 2°56.552 7.3 125 19.2 101770 81
2004-07-30 07:18:29 51°19.106 2°56.551 6 115 19.2 101770 81
2004-07-30 07:18:34 51°19.104 2°56.549 6.3 125 19.1 101770 81
2004-07-30 07:18:39 51°19.102 2°56.548 6.6 115 19.1 101770 81
2004-07-30 07:18:43 51°19.101 2°56.547 6.8 119 19.1 101760 81
2004-07-30 07:18:49 51°19.098 2°56.545 7.1 117 19.1 101760 81
2004-07-30 07:18:54 51°19.096 2°56.544 8.1 115 19.1 101770 81
2004-07-30 07:18:59 51°19.093 2°56.542 8.1 116 19.1 101770 81
2004-07-30 07:19:03 51°19.091 2°56.54 8.6 113 19.2 101770 82
2004-07-30 07:19:10 51°19.087 2°56.537 7.3 107 19.2 101770 82
2004-07-30 07:19:14 51°19.085 2°56.535 8.3 108 19.1 101760 82
2004-07-30 07:19:19 51°19.081 2°56.531 8.8 96 19.1 101760 82
2004-07-30 07:19:23 51°19.078 2°56.528 8.4 95 19.2 101760 82
2004-07-30 07:19:29 51°19.074 2°56.523 9.5 86 19.2 101760 82
2004-07-30 07:19:34 51°19.07 2°56.518 9.8 88 19.1 101760 81
2004-07-30 07:19:39 51°19.067 2°56.513 7.3 79 19.1 101760 81
2004-07-30 07:19:43 51°19.064 2°56.508 6.4 72 19.1 101760 81
2004-07-30 07:19:49 51°19.06 2°56.501 8.3 61 19.1 101760 81
2004-07-30 07:19:54 51°19.057 2°56.494 9.3 62 19.1 101760 81
2004-07-30 07:19:59 51°19.054 2°56.487 9.3 53 19.1 101760 81
2004-07-30 07:20:03 51°19.052 2°56.481 9.6 54 19.1 101760 80
2004-07-30 07:20:10 51°19.049 2°56.471 9.3 44 19.1 101760 80
2004-07-30 07:20:14 51°19.047 2°56.465 9.4 44 19.1 101750 81
2004-07-30 07:20:19 51°19.045 2°56.457 10.1 37 19.1 101750 81
2004-07-30 07:20:23 51°19.044 2°56.45 10.2 38 19.1 101750 80
2004-07-30 07:20:29 51°19.042 2°56.441 10 33 19.1 101750 80
2004-07-30 07:20:34 51°19.042 2°56.433 9.9 30 19 101750 79
2004-07-30 07:20:39 51°19.041 2°56.424 9.5 18 19 101750 79
2004-07-30 07:20:44 51°19.041 2°56.417 9.7 21 19 101750 79
2004-07-30 07:20:49 51°19.041 2°56.409 10.6 10 19 101750 79
2004-07-30 07:20:54 51°19.042 2°56.401 10.4 13 19 101750 78
2004-07-30 07:20:59 51°19.043 2°56.394 10.4 3 19 101750 78
2004-07-30 07:21:05 51°19.044 2°56.385 9.3 2 19 101750 78
2004-07-30 07:21:09 51°19.046 2°56.38 9.6 354 19 101750 78
2004-07-30 07:21:14 51°19.047 2°56.374 10.2 350 19.1 101750 78
2004-07-30 07:21:19 51°19.05 2°56.368 10 348 19.1 101750 78
2004-07-30 07:21:25 51°19.053 2°56.362 10.2 347 19.1 101750 77
2004-07-30 07:21:29 51°19.055 2°56.357 9.8 344 19.1 101750 77
2004-07-30 07:21:34 51°19.058 2°56.352 9.9 345 19.1 101750 77
2004-07-30 07:21:39 51°19.061 2°56.347 9 344 19.1 101750 77
2004-07-30 07:21:43 51°19.063 2°56.343 9.4 344 19.1 101750 77
2004-07-30 07:21:49 51°19.067 2°56.337 9.6 340 19.1 101750 77
2004-07-30 07:21:54 51°19.071 2°56.333 9.5 343 19.1 101750 76
2004-07-30 07:21:59 51°19.074 2°56.328 9.5 343 19.1 101750 76
2004-07-30 07:22:03 51°19.077 2°56.325 9.3 340 19.1 101740 77
2004-07-30 07:22:09 51°19.082 2°56.321 8.8 340 19.1 101740 77
2004-07-30 07:22:14 51°19.085 2°56.318 9 336 19.1 101750 77
2004-07-30 07:22:19 51°19.089 2°56.315 9.3 337 19.1 101750 77
2004-07-30 07:22:24 51°19.092 2°56.312 9.3 336 19.1 101750 77
2004-07-30 07:22:29 51°19.095 2°56.309 9.2 336 19.1 101750 77
2004-07-30 07:22:34 51°19.097 2°56.306 9.6 338 19.2 101750 77
2004-07-30 07:22:39 51°19.1 2°56.302 8.8 345 19.2 101750 77
2004-07-30 07:22:43 51°19.102 2°56.3 9.1 348 19.2 101750 77
2004-07-30 07:22:49 51°19.104 2°56.296 8.8 351 19.2 101750 77
2004-07-30 07:22:54 51°19.106 2°56.292 8.6 353 19.2 101750 77
2004-07-30 07:22:59 51°19.108 2°56.288 8.7 349 19.2 101750 77
2004-07-30 07:23:03 51°19.109 2°56.285 8.1 352 19.2 101750 77
2004-07-30 07:23:09 51°19.111 2°56.28 8.4 353 19.2 101750 77
2004-07-30 07:23:14 51°19.113 2°56.276 8 356 19.2 101750 78
2004-07-30 07:23:19 51°19.114 2°56.272 9.2 1 19.2 101750 78
2004-07-30 07:23:23 51°19.115 2°56.268 8.2 5 19.2 101750 78
2004-07-30 07:23:29 51°19.116 2°56.263 8.7 9 19.2 101750 78
2004-07-30 07:23:34 51°19.116 2°56.258 8.5 11 19.2 101750 78
2004-07-30 07:23:39 51°19.117 2°56.254 8.2 13 19.2 101750 78
2004-07-30 07:23:43 51°19.117 2°56.25 8.1 16 19.2 101750 78
2004-07-30 07:23:49 51°19.117 2°56.245 8.1 17 19.2 101750 78
2004-07-30 07:23:54 51°19.117 2°56.241 8.2 17 19.2 101760 78
2004-07-30 07:23:59 51°19.117 2°56.236 7.6 20 19.2 101760 78
2004-07-30 07:24:03 51°19.117 2°56.233 7.4 14 19.2 101760 78
2004-07-30 07:24:09 51°19.116 2°56.228 6.9 27 19.2 101760 78
2004-07-30 07:24:14 51°19.116 2°56.225 6.7 28 19.2 101760 78
2004-07-30 07:24:19 51°19.115 2°56.223 6.4 30 19.2 101760 78
2004-07-30 07:24:23 51°19.114 2°56.22 6.3 31 19.2 101760 78
2004-07-30 07:24:29 51°19.113 2°56.218 7.1 36 19.2 101760 78
2004-07-30 07:24:34 51°19.112 2°56.217 6.9 38 19.2 101760 79
2004-07-30 07:24:39 51°19.11 2°56.215 6.6 39 19.2 101760 79
2004-07-30 07:24:43 51°19.109 2°56.215 6.2 37 19.2 101760 79
2004-07-30 07:24:49 51°19.107 2°56.214 6.1 38 19.2 101760 79
2004-07-30 07:24:54 51°19.105 2°56.214 6.2 36 19.2 101760 79
2004-07-30 07:24:59 51°19.104 2°56.214 6 49 19.2 101760 79
2004-07-30 07:25:04 51°19.102 2°56.214 6 46 19.2 101760 79
2004-07-30 07:25:09 51°19.1 2°56.215 6.1 49 19.2 101760 79
2004-07-30 07:25:15 51°19.097 2°56.216 5.9 45 19.2 101760 80
2004-07-30 07:25:19 51°19.095 2°56.217 5.5 49 19.2 101760 80
2004-07-30 07:25:25 51°19.093 2°56.219 5.9 50 19.2 101770 80
2004-07-30 07:25:30 51°19.091 2°56.22 6.8 50 19.2 101770 80
2004-07-30 07:25:35 51°19.089 2°56.221 6 53 19.2 101770 80
2004-07-30 07:25:39 51°19.088 2°56.222 6.4 53 19.2 101770 80
2004-07-30 07:25:45 51°19.086 2°56.222 6.2 55 19.1 101760 80
2004-07-30 07:25:50 51°19.084 2°56.221 6.8 54 19.1 101760 80
2004-07-30 07:25:55 51°19.082 2°56.219 6.7 58 19.1 101760 80
2004-07-30 07:26:00 51°19.081 2°56.217 6.4 55 19.1 101760 80
2004-07-30 07:26:04 51°19.08 2°56.216 6.2 58 19.1 101770 80
2004-07-30 07:26:10 51°19.078 2°56.214 6.4 57 19.1 101770 80
2004-07-30 07:26:14 51°19.076 2°56.213 6.6 58 19.1 101770 80
2004-07-30 07:26:18 51°19.075 2°56.211 6.9 63 19.1 101770 80
2004-07-30 07:26:23 51°19.074 2°56.209 6.4 66 19.1 101760 80
2004-07-30 07:26:29 51°19.072 2°56.207 6.4 57 19.1 101760 80
2004-07-30 07:26:34 51°19.07 2°56.205 6.4 62 19.1 101760 80
2004-07-30 07:26:39 51°19.068 2°56.203 6.1 63 19.1 101760 80
2004-07-30 07:26:44 51°19.067 2°56.202 6.1 66 19.1 101760 80
2004-07-30 07:26:49 51°19.065 2°56.2 6 65 19.1 101760 80
2004-07-30 07:26:54 51°19.063 2°56.198 5.8 68 19.1 101770 81
2004-07-30 07:26:59 51°19.062 2°56.196 6.1 70 19.1 101770 81
2004-07-30 07:27:05 51°19.059 2°56.194 6.6 66 19.1 101770 81
2004-07-30 07:27:09 51°19.058 2°56.193 6.3 67 19.1 101770 81
2004-07-30 07:27:14 51°19.057 2°56.191 6.3 71 19.1 101770 81
2004-07-30 07:27:19 51°19.055 2°56.189 5.9 79 19.1 101770 81
2004-07-30 07:27:23 51°19.053 2°56.188 6.5 75 19.1 101770 81
2004-07-30 07:27:29 51°19.051 2°56.186 6.7 75 19.1 101770 81
2004-07-30 07:27:34 51°19.05 2°56.184 6.6 80 19.1 101770 81
2004-07-30 07:27:39 51°19.048 2°56.182 6.2 81 19.1 101770 81
2004-07-30 07:27:45 51°19.046 2°56.18 6.8 82 19.1 101770 81
2004-07-30 07:27:47 51°19.045 2°56.179 6.3 86 19.1 101770 81
2004-07-30 07:27:54 51°19.042 2°56.177 6.6 85 19 101770 81
2004-07-30 07:27:59 51°19.041 2°56.175 6.8 88 19 101770 81
2004-07-30 07:28:05 51°19.038 2°56.172 7 88 19.1 101770 81
2004-07-30 07:28:10 51°19.037 2°56.171 6.5 92 19.1 101770 81
2004-07-30 07:28:14 51°19.035 2°56.169 6.2 99 19 101770 81
2004-07-30 07:28:19 51°19.033 2°56.168 5.6 104 19 101770 81
2004-07-30 07:28:24 51°19.031 2°56.166 5.6 104 19 101770 82
2004-07-30 07:28:29 51°19.029 2°56.164 5.9 91 19 101770 82
2004-07-30 07:28:34 51°19.028 2°56.162 5.7 91 19 101770 82
2004-07-30 07:28:39 51°19.026 2°56.16 5.9 90 19 101770 82
2004-07-30 07:28:43 51°19.024 2°56.159 5.8 92 19 101770 82
2004-07-30 07:28:49 51°19.022 2°56.157 6 107 19 101770 82
2004-07-30 07:28:54 51°19.02 2°56.155 5.7 105 19 101770 82
2004-07-30 07:28:59 51°19.018 2°56.153 5.9 106 19 101770 82
2004-07-30 07:29:05 51°19.016 2°56.15 6 107 19 101770 82
2004-07-30 07:29:09 51°19.014 2°56.149 5.5 106 19 101770 82
2004-07-30 07:29:14 51°19.013 2°56.147 5.2 105 19 101770 82
2004-07-30 07:29:19 51°19.011 2°56.145 4.8 108 19 101770 82
2004-07-30 07:29:25 51°19.008 2°56.143 4.9 111 19.1 101770 82
2004-07-30 07:29:30 51°19.006 2°56.141 5.3 111 19.1 101770 82
2004-07-30 07:29:34 51°19.005 2°56.139 5.3 118 19 101770 82
2004-07-30 07:29:39 51°19.003 2°56.137 5 113 19 101770 82
2004-07-30 07:29:43 51°19.002 2°56.136 4.7 117 19 101770 82
2004-07-30 07:29:49 51°18.999 2°56.133 5.5 124 19 101770 82
2004-07-30 07:29:54 51°18.997 2°56.131 5.4 121 19 101760 82
2004-07-30 07:29:59 51°18.995 2°56.129 5.3 121 19 101760 82
2004-07-30 07:30:05 51°18.993 2°56.127 5.5 121 19 101770 82
2004-07-30 07:30:09 51°18.991 2°56.125 5 115 19 101770 82
2004-07-30 07:30:14 51°18.989 2°56.123 4.8 115 19 101770 83
2004-07-30 07:30:19 51°18.987 2°56.121 4.5 128 19 101770 83
2004-07-30 07:30:23 51°18.986 2°56.12 4.6 122 19 101770 83
2004-07-30 07:30:29 51°18.983 2°56.117 5 115 19 101770 83
2004-07-30 07:30:34 51°18.981 2°56.115 5.1 113 19 101760 82
2004-07-30 07:30:39 51°18.979 2°56.113 5.1 119 19 101760 82
2004-07-30 07:30:45 51°18.977 2°56.111 5.4 120 19 101770 83
2004-07-30 07:30:49 51°18.975 2°56.109 5.1 118 19 101770 83
2004-07-30 07:30:54 51°18.973 2°56.107 4.8 115 19 101770 83
2004-07-30 07:30:59 51°18.971 2°56.105 4.9 120 19 101770 83
2004-07-30 07:31:04 51°18.969 2°56.102 4.9 115 19 101770 83
2004-07-30 07:31:09 51°18.967 2°56.1 4.3 106 19 101770 83
2004-07-30 07:31:14 51°18.965 2°56.098 4.5 108 19 101770 83
2004-07-30 07:31:19 51°18.963 2°56.096 4.2 111 19 101770 83
2004-07-30 07:31:23 51°18.961 2°56.094 4 112 19.1 101770 83
2004-07-30 07:31:29 51°18.959 2°56.091 3.9 114 19.1 101770 83
2004-07-30 07:31:34 51°18.957 2°56.089 3.8 117 19.1 101770 83
2004-07-30 07:31:39 51°18.955 2°56.087 4 115 19.1 101770 83
2004-07-30 07:31:42 51°18.954 2°56.085 4 117 19.1 101770 83
2004-07-30 07:31:49 51°18.951 2°56.082 4.1 111 19.1 101770 83
2004-07-30 07:31:54 51°18.949 2°56.08 4 114 19 101770 83
2004-07-30 07:31:59 51°18.947 2°56.078 4.8 112 19 101770 83
2004-07-30 07:32:05 51°18.945 2°56.075 4.5 110 19.1 101770 83
2004-07-30 07:32:10 51°18.943 2°56.073 5 100 19.1 101770 83
2004-07-30 07:32:14 51°18.941 2°56.071 4.3 105 19.1 101770 83
2004-07-30 07:32:19 51°18.939 2°56.068 4.8 110 19.1 101770 83
2004-07-30 07:32:24 51°18.937 2°56.066 4.4 108 19.1 101770 83
2004-07-30 07:32:29 51°18.935 2°56.064 4.2 102 19.1 101770 83
2004-07-30 07:32:34 51°18.933 2°56.061 4.1 99 19.1 101770 83
2004-07-30 07:32:38 51°18.932 2°56.059 3.9 107 19.1 101770 83
2004-07-30 07:32:44 51°18.93 2°56.057 4.2 115 19 101770 83
2004-07-30 07:32:49 51°18.928 2°56.054 4.4 103 19 101770 83
2004-07-30 07:32:54 51°18.926 2°56.052 4.7 101 19.1 101770 83
2004-07-30 07:32:59 51°18.924 2°56.049 5 103 19.1 101770 83
2004-07-30 07:33:05 51°18.922 2°56.046 4.7 107 19.1 101770 83
2004-07-30 07:33:09 51°18.921 2°56.045 4.7 108 19.1 101770 83
2004-07-30 07:33:14 51°18.919 2°56.042 4.9 103 19.1 101770 83
2004-07-30 07:33:19 51°18.917 2°56.04 4.4 99 19.1 101770 83
2004-07-30 07:33:24 51°18.915 2°56.037 4.6 104 19.1 101770 83
2004-07-30 07:33:30 51°18.913 2°56.034 5.3 101 19.1 101770 83
2004-07-30 07:33:34 51°18.911 2°56.033 5.8 90 19 101780 83
2004-07-30 07:33:39 51°18.909 2°56.03 5.8 95 19 101780 83
2004-07-30 07:33:43 51°18.908 2°56.028 5.3 92 19 101780 83
2004-07-30 07:33:49 51°18.906 2°56.025 5.1 85 19 101780 83
2004-07-30 07:33:55 51°18.903 2°56.022 5.6 91 19.1 101770 83
2004-07-30 07:33:59 51°18.902 2°56.02 5.5 93 19.1 101770 83
2004-07-30 07:34:05 51°18.9 2°56.018 5.8 93 19.1 101780 83
2004-07-30 07:34:09 51°18.898 2°56.016 5.7 92 19.1 101780 83
2004-07-30 07:34:14 51°18.896 2°56.013 5.6 96 19.1 101770 83
2004-07-30 07:34:19 51°18.894 2°56.011 5.6 87 19.1 101770 83
2004-07-30 07:34:25 51°18.892 2°56.008 5.8 88 19.1 101780 83
2004-07-30 07:34:30 51°18.89 2°56.005 5.7 91 19.1 101780 83
2004-07-30 07:34:34 51°18.889 2°56.003 5.6 95 19.1 101770 84
2004-07-30 07:34:39 51°18.887 2°56.001 5 94 19.1 101770 84
2004-07-30 07:34:43 51°18.885 2°55.999 4.8 98 19.1 101770 83
2004-07-30 07:34:49 51°18.883 2°55.996 4.6 102 19.1 101770 83
2004-07-30 07:34:55 51°18.881 2°55.993 4.6 97 19.1 101770 83
2004-07-30 07:34:59 51°18.879 2°55.991 4.9 98 19.1 101770 83
2004-07-30 07:35:05 51°18.877 2°55.988 4.7 99 19.1 101770 83
2004-07-30 07:35:09 51°18.875 2°55.986 5.4 100 19.1 101770 83
2004-07-30 07:35:14 51°18.873 2°55.984 5.9 102 19.1 101780 83
2004-07-30 07:35:19 51°18.871 2°55.981 5.6 103 19.1 101780 83
2004-07-30 07:35:23 51°18.87 2°55.979 5.8 106 19.1 101770 83
2004-07-30 07:35:30 51°18.867 2°55.976 5.2 102 19.1 101770 83
2004-07-30 07:35:34 51°18.866 2°55.974 5.1 100 19.1 101770 83
2004-07-30 07:35:39 51°18.864 2°55.971 5.6 106 19.1 101770 83
2004-07-30 07:35:44 51°18.862 2°55.969 5.4 109 19.1 101770 83
2004-07-30 07:35:49 51°18.86 2°55.967 5.2 101 19.1 101770 83
2004-07-30 07:35:54 51°18.858 2°55.964 5.3 101 19.1 101770 83
2004-07-30 07:35:59 51°18.856 2°55.962 5 104 19.1 101770 83
2004-07-30 07:36:03 51°18.855 2°55.959 5 105 19.1 101770 83
2004-07-30 07:36:09 51°18.852 2°55.956 4.7 105 19.1 101770 83
2004-07-30 07:36:14 51°18.85 2°55.954 4.4 101 19.1 101770 83
2004-07-30 07:36:19 51°18.849 2°55.952 4.2 106 19.1 101770 83
2004-07-30 07:36:23 51°18.847 2°55.949 4.6 102 19.1 101770 83
2004-07-30 07:36:29 51°18.845 2°55.946 5.1 102 19.1 101770 83
2004-07-30 07:36:34 51°18.843 2°55.944 4.9 98 19.1 101770 83
2004-07-30 07:36:39 51°18.841 2°55.941 4.6 95 19.1 101770 83
2004-07-30 07:36:44 51°18.84 2°55.939 4.4 96 19.1 101770 83
2004-07-30 07:36:49 51°18.838 2°55.936 4.3 103 19.1 101770 83
2004-07-30 07:36:55 51°18.835 2°55.933 4.8 101 19.1 101770 83
2004-07-30 07:36:59 51°18.834 2°55.931 4.5 101 19.1 101770 83
2004-07-30 07:37:03 51°18.833 2°55.929 4.9 93 19.1 101770 83
2004-07-30 07:37:09 51°18.83 2°55.926 4.7 97 19.1 101770 83
2004-07-30 07:37:14 51°18.829 2°55.923 5.1 99 19.1 101770 83
2004-07-30 07:37:19 51°18.827 2°55.921 5 96 19.1 101770 83
2004-07-30 07:37:23 51°18.825 2°55.919 5.4 94 19.2 101770 83
2004-07-30 07:37:29 51°18.823 2°55.916 5.6 90 19.2 101770 83
2004-07-30 07:37:34 51°18.821 2°55.913 6.5 87 19.2 101770 83
2004-07-30 07:37:39 51°18.82 2°55.911 5.4 90 19.2 101770 83
2004-07-30 07:37:43 51°18.818 2°55.909 5.8 92 19.2 101770 83
2004-07-30 07:37:50 51°18.816 2°55.905 5.6 95 19.2 101770 83
2004-07-30 07:37:54 51°18.814 2°55.903 5.6 93 19.1 101770 83
2004-07-30 07:37:59 51°18.812 2°55.9 3.3 90 19.1 101770 83
2004-07-30 07:38:03 51°18.811 2°55.898 5.3 94 19.1 101770 83
2004-07-30 07:38:09 51°18.809 2°55.895 5.8 93 19.1 101770 83
2004-07-30 07:38:14 51°18.807 2°55.893 5.5 88 19.1 101770 82
2004-07-30 07:38:19 51°18.805 2°55.89 5.6 84 19.1 101770 82
2004-07-30 07:38:23 51°18.804 2°55.888 5.8 88 19.1 101770 82
2004-07-30 07:38:29 51°18.801 2°55.885 5 94 19.1 101770 82
2004-07-30 07:38:35 51°18.799 2°55.882 5.4 94 19.1 101770 83
2004-07-30 07:38:39 51°18.798 2°55.88 5.4 92 19.1 101770 83
2004-07-30 07:38:45 51°18.796 2°55.877 5.1 95 19.1 101770 83
2004-07-30 07:38:50 51°18.794 2°55.875 5 97 19.1 101770 83
2004-07-30 07:38:54 51°18.793 2°55.873 5.3 99 19.1 101770 83
2004-07-30 07:38:59 51°18.791 2°55.871 4.7 93 19.1 101770 83
2004-07-30 07:39:05 51°18.789 2°55.869 5 93 19.1 101770 82
2004-07-30 07:39:09 51°18.788 2°55.867 4.4 100 19.1 101770 82
2004-07-30 07:39:14 51°18.786 2°55.866 4.7 100 19.1 101770 83
2004-07-30 07:39:19 51°18.784 2°55.864 4.6 96 19.1 101770 83
2004-07-30 07:39:23 51°18.783 2°55.862 4.5 92 19.1 101770 83
2004-07-30 07:39:30 51°18.781 2°55.86 4.4 90 19.1 101770 83
2004-07-30 07:39:34 51°18.78 2°55.858 3.9 93 19.1 101760 83
2004-07-30 07:39:39 51°18.778 2°55.856 4 103 19.1 101760 83
2004-07-30 07:39:44 51°18.776 2°55.854 4 102 19.1 101770 83
2004-07-30 07:39:49 51°18.774 2°55.853 4 102 19.1 101770 83
2004-07-30 07:39:54 51°18.773 2°55.851 4.3 108 19.1 101770 83
2004-07-30 07:39:59 51°18.771 2°55.849 4.9 100 19.1 101770 83
2004-07-30 07:40:05 51°18.769 2°55.847 4.7 104 19.2 101770 83
2004-07-30 07:40:09 51°18.768 2°55.845 4.4 103 19.2 101770 83
2004-07-30 07:40:14 51°18.766 2°55.843 4.7 101 19.2 101770 83
2004-07-30 07:40:19 51°18.765 2°55.841 4.2 97 19.2 101770 83
2004-07-30 07:40:25 51°18.763 2°55.839 4.2 107 19.1 101770 83
2004-07-30 07:40:29 51°18.762 2°55.837 4.5 103 19.1 101770 83
2004-07-30 07:40:34 51°18.76 2°55.835 4.9 101 19.2 101770 83
2004-07-30 07:40:38 51°18.758 2°55.834 5.1 103 19.2 101770 83
2004-07-30 07:40:45 51°18.756 2°55.831 4.8 101 19.2 101770 83
2004-07-30 07:40:49 51°18.755 2°55.829 4.7 100 19.2 101770 83
2004-07-30 07:40:54 51°18.753 2°55.827 4.7 104 19.1 101770 83
2004-07-30 07:40:59 51°18.751 2°55.825 4.1 101 19.1 101770 83
2004-07-30 07:41:03 51°18.75 2°55.824 2.6 103 19.1 101770 83
2004-07-30 07:41:09 51°18.748 2°55.821 4.7 102 19.1 101770 83
2004-07-30 07:41:14 51°18.746 2°55.819 4.6 104 19.1 101770 82
2004-07-30 07:41:19 51°18.744 2°55.817 4.5 101 19.1 101770 82
2004-07-30 07:41:22 51°18.743 2°55.816 4.6 98 19.1 101770 82
2004-07-30 07:41:29 51°18.741 2°55.813 4.7 96 19.1 101770 82
2004-07-30 07:41:34 51°18.739 2°55.811 4.5 96 19.2 101770 82
2004-07-30 07:41:39 51°18.737 2°55.809 4 107 19.2 101770 82
2004-07-30 07:41:43 51°18.736 2°55.808 4.2 103 19.1 101770 82
2004-07-30 07:41:50 51°18.734 2°55.805 3.6 98 19.1 101770 82
2004-07-30 07:41:54 51°18.732 2°55.803 3.9 108 19.1 101770 82
2004-07-30 07:41:59 51°18.731 2°55.801 3.8 107 19.1 101770 82
2004-07-30 07:42:04 51°18.729 2°55.798 3.7 106 19.1 101770 82
2004-07-30 07:42:09 51°18.727 2°55.796 3.8 97 19.1 101770 82
2004-07-30 07:42:14 51°18.726 2°55.794 3.9 102 19.1 101770 82
2004-07-30 07:42:19 51°18.724 2°55.792 3.9 95 19.1 101770 82
2004-07-30 07:42:24 51°18.722 2°55.79 4.4 100 19.1 101770 82
2004-07-30 07:42:30 51°18.72 2°55.787 4.3 98 19.1 101770 82
2004-07-30 07:42:34 51°18.718 2°55.784 4.1 95 19.1 101770 82
2004-07-30 07:42:39 51°18.716 2°55.781 4.7 86 19.1 101770 82
2004-07-30 07:42:44 51°18.714 2°55.777 4.8 90 19.1 101780 82
2004-07-30 07:42:49 51°18.712 2°55.772 3.7 80 19.1 101780 82
2004-07-30 07:42:54 51°18.71 2°55.767 3.3 79 19.1 101770 82
2004-07-30 07:42:59 51°18.708 2°55.762 3.9 75 19.1 101770 82
2004-07-30 07:43:05 51°18.705 2°55.755 4.5 80 19.1 101770 82
2004-07-30 07:43:09 51°18.704 2°55.749 4.9 60 19.1 101770 82
2004-07-30 07:43:14 51°18.702 2°55.742 5.3 63 19.1 101770 82
2004-07-30 07:43:19 51°18.701 2°55.734 5.5 51 19.1 101770 82
2004-07-30 07:43:24 51°18.699 2°55.725 6 46 19.1 101770 82
2004-07-30 07:43:29 51°18.699 2°55.715 5.7 41 19.1 101770 82
2004-07-30 07:43:34 51°18.699 2°55.705 5.7 37 19.1 101770 82
2004-07-30 07:43:39 51°18.699 2°55.694 7.2 31 19.1 101770 82
2004-07-30 07:43:43 51°18.7 2°55.685 7.2 30 19.1 101770 82
2004-07-30 07:43:49 51°18.702 2°55.671 6.8 23 19.1 101770 82
2004-07-30 07:43:54 51°18.705 2°55.659 7.1 21 19.1 101780 82
2004-07-30 07:43:59 51°18.709 2°55.648 7.3 11 19.1 101780 82
2004-07-30 07:44:05 51°18.715 2°55.635 6.9 13 19.1 101770 82
2004-07-30 07:44:10 51°18.72 2°55.625 7.7 6 19.1 101770 82
2004-07-30 07:44:14 51°18.726 2°55.618 8.2 7 19.1 101770 82
2004-07-30 07:44:19 51°18.732 2°55.611 8 356 19.1 101770 82
2004-07-30 07:44:23 51°18.739 2°55.606 8.1 352 19.1 101770 82
2004-07-30 07:44:30 51°18.75 2°55.6 7.7 343 19.1 101770 82
2004-07-30 07:44:34 51°18.757 2°55.598 8.2 346 19.2 101770 82
2004-07-30 07:44:39 51°18.765 2°55.597 8 335 19.2 101770 82
2004-07-30 07:44:43 51°18.772 2°55.598 7.8 332 19.2 101770 82
2004-07-30 07:44:50 51°18.784 2°55.602 7.9 328 19.2 101770 82
2004-07-30 07:44:54 51°18.791 2°55.606 8.1 327 19.2 101770 82
2004-07-30 07:44:59 51°18.8 2°55.613 8.2 326 19.2 101770 82
2004-07-30 07:45:05 51°18.811 2°55.624 9 325 19.2 101760 82
2004-07-30 07:45:09 51°18.818 2°55.633 8.6 320 19.2 101760 82
2004-07-30 07:45:14 51°18.827 2°55.646 8.3 320 19.2 101770 82
2004-07-30 07:45:19 51°18.837 2°55.661 8.6 324 19.2 101770 82
2004-07-30 07:45:24 51°18.846 2°55.676 8.2 319 19.2 101770 82
2004-07-30 07:45:29 51°18.857 2°55.692 8.6 329 19.2 101770 82
2004-07-30 07:45:34 51°18.868 2°55.709 9.2 329 19.2 101770 82
2004-07-30 07:45:39 51°18.879 2°55.727 9 325 19.2 101770 82
2004-07-30 07:45:43 51°18.888 2°55.741 9.5 331 19.2 101770 82
2004-07-30 07:45:49 51°18.902 2°55.764 9.8 326 19.2 101770 82
2004-07-30 07:45:54 51°18.914 2°55.782 8.9 329 19.2 101770 82
2004-07-30 07:45:59 51°18.925 2°55.801 9.1 327 19.2 101770 82
2004-07-30 07:46:04 51°18.937 2°55.821 8.5 331 19.2 101770 82
2004-07-30 07:46:09 51°18.948 2°55.84 9 334 19.2 101770 82
2004-07-30 07:46:14 51°18.96 2°55.86 10.4 329 19.2 101770 82
2004-07-30 07:46:19 51°18.972 2°55.88 9.9 331 19.2 101770 82
2004-07-30 07:46:23 51°18.981 2°55.896 9.2 330 19.2 101770 82
2004-07-30 07:46:29 51°18.995 2°55.92 8.7 332 19.2 101770 82
2004-07-30 07:46:34 51°19.006 2°55.94 9.1 330 19.2 101770 82
2004-07-30 07:46:39 51°19.017 2°55.961 9.6 329 19.2 101770 82
2004-07-30 07:46:43 51°19.026 2°55.977 9.1 329 19.2 101770 81
2004-07-30 07:46:49 51°19.04 2°56.003 9.7 329 19.2 101770 81
2004-07-30 07:46:54 51°19.05 2°56.024 9.4 329 19.2 101770 82
2004-07-30 07:46:59 51°19.061 2°56.046 8.5 326 19.2 101770 82
2004-07-30 07:47:05 51°19.073 2°56.072 9.3 327 19.2 101770 82
2004-07-30 07:47:09 51°19.082 2°56.09 8.3 329 19.2 101770 82
2004-07-30 07:47:14 51°19.092 2°56.112 9.2 327 19.2 101770 81
2004-07-30 07:47:19 51°19.102 2°56.133 9.3 324 19.2 101770 81
2004-07-30 07:47:24 51°19.113 2°56.155 8.8 324 19.2 101770 81
2004-07-30 07:47:29 51°19.123 2°56.177 8.2 331 19.2 101770 81
2004-07-30 07:47:34 51°19.134 2°56.199 8.3 330 19.2 101770 82
2004-07-30 07:47:39 51°19.144 2°56.22 8.5 324 19.2 101770 82
2004-07-30 07:47:43 51°19.153 2°56.238 8.4 331 19.2 101770 82
2004-07-30 07:47:49 51°19.165 2°56.264 8.1 324 19.2 101770 82
2004-07-30 07:47:54 51°19.176 2°56.286 8.4 324 19.2 101770 82
2004-07-30 07:47:59 51°19.186 2°56.307 8.3 326 19.2 101770 82
2004-07-30 07:48:03 51°19.195 2°56.325 8.2 327 19.2 101770 82
2004-07-30 07:48:09 51°19.207 2°56.351 9.2 327 19.2 101770 82
2004-07-30 07:48:15 51°19.22 2°56.378 9.4 328 19.2 101770 82
2004-07-30 07:48:19 51°19.228 2°56.396 8.4 329 19.2 101770 82
2004-07-30 07:48:24 51°19.238 2°56.418 8.1 327 19.2 101780 82
2004-07-30 07:48:29 51°19.247 2°56.441 8.8 330 19.2 101780 82
2004-07-30 07:48:34 51°19.256 2°56.465 8 325 19.2 101780 82
2004-07-30 07:48:39 51°19.263 2°56.49 7.4 331 19.2 101780 82
2004-07-30 07:48:43 51°19.269 2°56.51 7.4 323 19.2 101780 82
2004-07-30 07:48:49 51°19.278 2°56.54 8 323 19.2 101780 82
2004-07-30 07:48:54 51°19.284 2°56.566 7.5 322 19.2 101780 82
2004-07-30 07:48:59 51°19.29 2°56.592 6.8 333 19.2 101780 82
2004-07-30 07:49:03 51°19.295 2°56.612 6.9 331 19.2 101780 82
2004-07-30 07:49:09 51°19.302 2°56.644 8 327 19.2 101780 82
2004-07-30 07:49:14 51°19.308 2°56.67 7.9 328 19.3 101780 82
2004-07-30 07:49:19 51°19.314 2°56.696 8.1 328 19.3 101780 82
2004-07-30 07:49:25 51°19.32 2°56.728 7.5 332 19.2 101780 82
2004-07-30 07:49:29 51°19.325 2°56.748 7.7 332 19.2 101780 82
2004-07-30 07:49:34 51°19.331 2°56.774 7.6 331 19.2 101780 82
2004-07-30 07:49:39 51°19.338 2°56.8 7.8 338 19.2 101780 82
2004-07-30 07:49:43 51°19.343 2°56.82 7.6 336 19.2 101780 82
2004-07-30 07:49:50 51°19.352 2°56.856 7.5 332 19.2 101780 82
2004-07-30 07:49:55 51°19.358 2°56.881 7.3 333 19.2 101780 82
2004-07-30 07:49:59 51°19.364 2°56.902 8 331 19.2 101780 82
2004-07-30 07:50:04 51°19.37 2°56.927 7.9 331 19.2 101780 82
2004-07-30 07:50:09 51°19.377 2°56.952 7.8 333 19.2 101780 82
2004-07-30 07:50:14 51°19.383 2°56.978 7 333 19.2 101780 82
2004-07-30 07:50:19 51°19.39 2°57.003 7.5 333 19.2 101780 82
2004-07-30 07:50:23 51°19.395 2°57.024 7 333 19.2 101780 82
2004-07-30 07:50:30 51°19.403 2°57.06 7.5 337 19.2 101780 82
2004-07-30 07:50:34 51°19.408 2°57.081 7.3 337 19.2 101780 82
2004-07-30 07:50:39 51°19.414 2°57.106 6.9 335 19.2 101780 82
2004-07-30 07:50:44 51°19.421 2°57.132 7.3 336 19.2 101780 82
2004-07-30 07:50:49 51°19.427 2°57.157 7 336 19.2 101780 82
2004-07-30 07:50:55 51°19.435 2°57.187 7.7 336 19.2 101780 82
2004-07-30 07:50:59 51°19.441 2°57.207 7.5 338 19.2 101780 82
2004-07-30 07:51:03 51°19.446 2°57.227 7 338 19.2 101780 82
2004-07-30 07:51:09 51°19.454 2°57.257 6.6 337 19.2 101780 82
2004-07-30 07:51:14 51°19.461 2°57.282 7 337 19.2 101780 82
2004-07-30 07:51:19 51°19.467 2°57.308 7.2 335 19.2 101780 82
2004-07-30 07:51:24 51°19.474 2°57.333 7.2 338 19.2 101780 82
2004-07-30 07:51:29 51°19.48 2°57.359 7.3 338 19.2 101780 82
2004-07-30 07:51:34 51°19.486 2°57.384 7.5 339 19.2 101780 82
2004-07-30 07:51:39 51°19.492 2°57.41 6.9 338 19.2 101780 82
2004-07-30 07:51:44 51°19.499 2°57.436 7.4 337 19.2 101780 82
2004-07-30 07:51:49 51°19.505 2°57.461 7.3 342 19.2 101780 82
2004-07-30 07:51:55 51°19.513 2°57.492 7.4 338 19.2 101780 82
2004-07-30 07:51:59 51°19.518 2°57.512 7.4 342 19.2 101780 82
2004-07-30 07:52:03 51°19.523 2°57.532 7.6 340 19.2 101780 82
2004-07-30 07:52:09 51°19.531 2°57.562 7.8 342 19.2 101780 82
2004-07-30 07:52:14 51°19.538 2°57.588 7 339 19.2 101780 82
2004-07-30 07:52:19 51°19.545 2°57.612 7.6 339 19.2 101780 82
2004-07-30 07:52:24 51°19.551 2°57.638 7.5 338 19.2 101780 82
2004-07-30 07:52:29 51°19.557 2°57.663 7.9 335 19.2 101780 82
2004-07-30 07:52:34 51°19.564 2°57.688 7.9 337 19.2 101780 82
2004-07-30 07:52:39 51°19.57 2°57.713 7.8 335 19.2 101780 82
2004-07-30 07:52:43 51°19.576 2°57.733 7.8 334 19.2 101780 82
2004-07-30 07:52:49 51°19.584 2°57.763 7.3 337 19.2 101780 82
2004-07-30 07:52:55 51°19.592 2°57.792 8.2 335 19.2 101780 81
2004-07-30 07:52:59 51°19.597 2°57.812 7.4 339 19.2 101780 81
2004-07-30 07:53:03 51°19.602 2°57.832 7.1 338 19.2 101780 81
2004-07-30 07:53:10 51°19.611 2°57.867 7.3 333 19.2 101780 81
2004-07-30 07:53:14 51°19.617 2°57.887 7.7 335 19.2 101780 80
2004-07-30 07:53:19 51°19.623 2°57.912 7.2 338 19.2 101780 80
2004-07-30 07:53:23 51°19.628 2°57.932 7.7 335 19.2 101780 80
2004-07-30 07:53:30 51°19.636 2°57.968 7.8 336 19.2 101780 80
2004-07-30 07:53:34 51°19.641 2°57.988 7.3 337 19.2 101780 80
2004-07-30 07:53:39 51°19.647 2°58.013 7.8 337 19.2 101780 80
2004-07-30 07:53:43 51°19.652 2°58.033 7.6 344 19.2 101780 80
2004-07-30 07:53:49 51°19.659 2°58.063 7.4 338 19.2 101780 80
2004-07-30 07:53:54 51°19.666 2°58.088 7.7 337 19.3 101780 80
2004-07-30 07:54:00 51°19.673 2°58.118 7.3 336 19.3 101780 80
2004-07-30 07:54:04 51°19.679 2°58.138 7.6 338 19.3 101780 79
2004-07-30 07:54:09 51°19.685 2°58.163 7.2 341 19.3 101780 79
2004-07-30 07:54:14 51°19.692 2°58.188 7.6 341 19.3 101780 79
2004-07-30 07:54:19 51°19.698 2°58.213 7.2 338 19.3 101780 79
2004-07-30 07:54:23 51°19.703 2°58.233 7.2 340 19.3 101780 79
2004-07-30 07:54:30 51°19.712 2°58.268 8.1 338 19.3 101780 79
2004-07-30 07:54:34 51°19.718 2°58.288 7.6 336 19.3 101780 79
2004-07-30 07:54:39 51°19.724 2°58.313 8 334 19.3 101780 79
2004-07-30 07:54:43 51°19.729 2°58.333 7.6 337 19.3 101770 78
2004-07-30 07:54:49 51°19.737 2°58.363 7.8 338 19.3 101770 78
2004-07-30 07:54:54 51°19.743 2°58.388 8.2 338 19.3 101780 78
2004-07-30 07:54:59 51°19.75 2°58.413 7.1 335 19.3 101780 78
2004-07-30 07:55:04 51°19.756 2°58.438 7.9 333 19.3 101770 78
2004-07-30 07:55:10 51°19.764 2°58.469 7 334 19.3 101770 78
2004-07-30 07:55:14 51°19.769 2°58.489 7.9 336 19.3 101780 78
2004-07-30 07:55:19 51°19.776 2°58.514 7.7 338 19.3 101780 78
2004-07-30 07:55:24 51°19.782 2°58.539 7.9 338 19.3 101770 78
2004-07-30 07:55:30 51°19.79 2°58.569 7.7 339 19.3 101770 78
2004-07-30 07:55:34 51°19.795 2°58.589 8.1 338 19.3 101770 78
2004-07-30 07:55:39 51°19.802 2°58.614 8.7 333 19.3 101770 78
2004-07-30 07:55:43 51°19.807 2°58.635 8.1 338 19.4 101770 78
2004-07-30 07:55:50 51°19.817 2°58.67 7.8 337 19.4 101770 78
2004-07-30 07:55:54 51°19.822 2°58.69 8.3 336 19.4 101780 78
2004-07-30 07:55:59 51°19.829 2°58.715 7.8 336 19.4 101780 78
2004-07-30 07:56:04 51°19.835 2°58.741 8.1 339 19.4 101780 77
2004-07-30 07:56:08 51°19.84 2°58.761 7.5 337 19.4 101780 77
2004-07-30 07:56:14 51°19.848 2°58.792 8.4 335 19.4 101770 77
2004-07-30 07:56:19 51°19.854 2°58.817 7.4 340 19.4 101770 77
2004-07-30 07:56:25 51°19.861 2°58.848 7.6 335 19.4 101770 77
2004-07-30 07:56:29 51°19.866 2°58.868 8.5 336 19.4 101770 77
2004-07-30 07:56:34 51°19.873 2°58.894 7.5 335 19.4 101770 77
2004-07-30 07:56:39 51°19.879 2°58.919 7.8 341 19.4 101770 77
2004-07-30 07:56:43 51°19.884 2°58.94 7.7 339 19.4 101770 77
2004-07-30 07:56:49 51°19.893 2°58.97 8.2 338 19.4 101770 77
2004-07-30 07:56:54 51°19.899 2°58.995 8.3 336 19.4 101780 77
2004-07-30 07:56:59 51°19.906 2°59.021 8.3 336 19.4 101780 77
2004-07-30 07:57:04 51°19.913 2°59.046 8.7 336 19.4 101780 77
2004-07-30 07:57:09 51°19.92 2°59.071 8.1 332 19.4 101780 77
2004-07-30 07:57:14 51°19.927 2°59.096 7.7 332 19.4 101780 77
2004-07-30 07:57:19 51°19.934 2°59.122 8.4 332 19.4 101780 77
2004-07-30 07:57:23 51°19.939 2°59.142 8.7 334 19.5 101770 77
2004-07-30 07:57:29 51°19.947 2°59.172 7.6 334 19.5 101770 77
2004-07-30 07:57:34 51°19.954 2°59.198 7.8 335 19.5 101770 77
2004-07-30 07:57:39 51°19.96 2°59.224 8 330 19.5 101770 77
2004-07-30 07:57:43 51°19.965 2°59.244 8.2 335 19.5 101770 77
2004-07-30 07:57:49 51°19.973 2°59.275 7.9 332 19.5 101770 77
2004-07-30 07:57:54 51°19.979 2°59.301 8.4 330 19.5 101770 77
2004-07-30 07:57:59 51°19.985 2°59.327 8.4 327 19.5 101770 77
2004-07-30 07:58:03 51°19.989 2°59.347 7.7 327 19.5 101770 77
2004-07-30 07:58:09 51°19.997 2°59.378 7.7 334 19.5 101770 77
2004-07-30 07:58:14 51°20.003 2°59.404 7.8 333 19.5 101770 77
2004-07-30 07:58:19 51°20.01 2°59.429 7.9 336 19.5 101770 77
2004-07-30 07:58:24 51°20.016 2°59.454 8.5 330 19.5 101770 76
2004-07-30 07:58:29 51°20.023 2°59.48 7.5 336 19.5 101770 76
2004-07-30 07:58:34 51°20.029 2°59.505 8.4 332 19.5 101770 76
2004-07-30 07:58:39 51°20.036 2°59.531 8 333 19.5 101770 76
2004-07-30 07:58:43 51°20.041 2°59.551 8 335 19.5 101770 76
2004-07-30 07:58:49 51°20.049 2°59.581 7.8 328 19.5 101770 76
2004-07-30 07:58:54 51°20.055 2°59.607 7.7 328 19.5 101780 76
2004-07-30 07:58:59 51°20.061 2°59.632 7.9 331 19.5 101780 76
2004-07-30 07:59:03 51°20.067 2°59.653 8.2 337 19.5 101770 76
2004-07-30 07:59:10 51°20.075 2°59.688 8.6 332 19.5 101770 76
2004-07-30 07:59:14 51°20.08 2°59.709 7.5 329 19.5 101770 76
2004-07-30 07:59:19 51°20.086 2°59.735 7.7 333 19.5 101770 76
2004-07-30 07:59:24 51°20.092 2°59.76 7.8 332 19.5 101770 76
2004-07-30 07:59:29 51°20.098 2°59.786 8.6 330 19.5 101770 76
2004-07-30 07:59:34 51°20.104 2°59.812 8.5 331 19.5 101780 76
2004-07-30 07:59:39 51°20.11 2°59.838 8 329 19.5 101780 76
2004-07-30 07:59:43 51°20.115 2°59.858 8 329 19.5 101780 76
2004-07-30 07:59:49 51°20.123 2°59.889 7.9 330 19.5 101780 76
2004-07-30 07:59:54 51°20.129 2°59.914 8.4 328 19.5 101770 76
2004-07-30 07:59:59 51°20.136 2°59.939 8.7 331 19.5 101770 76
2004-07-30 08:00:05 51°20.144 2°59.97 8.8 331 19.4 101770 76
2004-07-30 08:00:09 51°20.149 2°59.99 8 330 19.4 101770 76
2004-07-30 08:00:14 51°20.155 3°0.016 8.5 328 19.5 101780 76
2004-07-30 08:00:19 51°20.162 3°0.042 7.8 329 19.5 101780 76
2004-07-30 08:00:23 51°20.167 3°0.062 8.5 324 19.5 101770 76
2004-07-30 08:00:30 51°20.175 3°0.099 7.6 331 19.5 101770 76
2004-07-30 08:00:34 51°20.18 3°0.119 7.8 328 19.5 101780 76
2004-07-30 08:00:39 51°20.186 3°0.145 7.3 328 19.5 101780 76
2004-07-30 08:00:43 51°20.19 3°0.166 8 328 19.5 101780 76
2004-07-30 08:00:50 51°20.199 3°0.203 8.3 327 19.5 101780 76
2004-07-30 08:00:54 51°20.204 3°0.224 7.6 330 19.5 101780 76
2004-07-30 08:00:59 51°20.21 3°0.25 8.6 329 19.5 101780 76
2004-07-30 08:01:03 51°20.215 3°0.27 8.9 326 19.4 101780 76
2004-07-30 08:01:10 51°20.224 3°0.306 8.6 328 19.4 101780 76
2004-07-30 08:01:14 51°20.229 3°0.327 9.1 328 19.5 101770 76
2004-07-30 08:01:19 51°20.236 3°0.353 8.3 328 19.5 101770 76
2004-07-30 08:01:25 51°20.244 3°0.383 8 328 19.5 101780 76
2004-07-30 08:01:29 51°20.25 3°0.403 8.4 330 19.5 101780 76
2004-07-30 08:01:34 51°20.257 3°0.429 8 332 19.5 101770 76
2004-07-30 08:01:39 51°20.264 3°0.454 7.8 330 19.5 101770 76
2004-07-30 08:01:43 51°20.27 3°0.474 8.6 326 19.4 101770 76
2004-07-30 08:01:49 51°20.278 3°0.505 8.4 327 19.4 101770 76
2004-07-30 08:01:54 51°20.285 3°0.531 7.5 330 19.5 101780 76
2004-07-30 08:01:59 51°20.291 3°0.557 8.3 330 19.5 101780 76
2004-07-30 08:02:03 51°20.296 3°0.578 7.7 330 19.5 101780 76
2004-07-30 08:02:10 51°20.305 3°0.614 7.8 329 19.5 101780 76
2004-07-30 08:02:14 51°20.31 3°0.635 7.6 336 19.5 101780 76
2004-07-30 08:02:19 51°20.316 3°0.662 7.8 330 19.5 101780 76
2004-07-30 08:02:23 51°20.321 3°0.683 8.5 328 19.4 101780 77
2004-07-30 08:02:29 51°20.329 3°0.714 7.8 328 19.4 101780 77
2004-07-30 08:02:34 51°20.335 3°0.74 8.3 328 19.5 101780 77
2004-07-30 08:02:39 51°20.341 3°0.766 7.6 328 19.5 101780 77
2004-07-30 08:02:45 51°20.349 3°0.798 7.7 328 19.5 101780 77
2004-07-30 08:02:49 51°20.354 3°0.819 8 331 19.5 101780 77
2004-07-30 08:02:54 51°20.361 3°0.844 7.8 335 19.5 101780 77
2004-07-30 08:02:59 51°20.368 3°0.87 8 334 19.5 101780 77
2004-07-30 08:03:03 51°20.373 3°0.891 7.9 330 19.5 101780 77
2004-07-30 08:03:09 51°20.381 3°0.922 8.3 329 19.5 101780 77
2004-07-30 08:03:14 51°20.388 3°0.948 8.9 331 19.5 101780 77
2004-07-30 08:03:19 51°20.394 3°0.975 8.1 329 19.5 101780 77
2004-07-30 08:03:24 51°20.401 3°1.001 7.8 331 19.5 101780 77
2004-07-30 08:03:29 51°20.408 3°1.027 7.9 332 19.5 101780 77
2004-07-30 08:03:34 51°20.414 3°1.053 7.9 331 19.5 101780 76
2004-07-30 08:03:39 51°20.421 3°1.079 7.2 332 19.5 101780 76
2004-07-30 08:03:43 51°20.426 3°1.1 7.4 332 19.5 101780 76
2004-07-30 08:03:49 51°20.434 3°1.131 8.4 331 19.5 101780 76
2004-07-30 08:03:54 51°20.441 3°1.158 8.2 333 19.5 101780 76
2004-07-30 08:03:59 51°20.447 3°1.184 8 332 19.5 101780 76
2004-07-30 08:04:05 51°20.455 3°1.214 7.2 334 19.5 101780 76
2004-07-30 08:04:10 51°20.462 3°1.241 7.9 332 19.5 101780 76
2004-07-30 08:04:14 51°20.467 3°1.262 7.6 332 19.5 101780 76
2004-07-30 08:04:19 51°20.473 3°1.288 7.1 325 19.5 101780 76
2004-07-30 08:04:25 51°20.479 3°1.32 7.6 324 19.5 101780 76
2004-07-30 08:04:29 51°20.483 3°1.342 7 329 19.5 101780 76
2004-07-30 08:04:34 51°20.488 3°1.369 6.8 326 19.5 101780 76
2004-07-30 08:04:39 51°20.493 3°1.396 7.3 328 19.5 101780 76
2004-07-30 08:04:43 51°20.497 3°1.417 6.9 332 19.5 101780 76
2004-07-30 08:04:49 51°20.504 3°1.449 7.7 329 19.5 101780 76
2004-07-30 08:04:54 51°20.51 3°1.476 8.1 328 19.5 101780 76
2004-07-30 08:04:59 51°20.515 3°1.502 7.2 330 19.5 101780 76
2004-07-30 08:05:04 51°20.521 3°1.529 7.7 330 19.5 101790 76
2004-07-30 08:05:09 51°20.527 3°1.555 7.1 331 19.5 101790 76
2004-07-30 08:05:14 51°20.534 3°1.581 7.6 332 19.5 101790 76
2004-07-30 08:05:19 51°20.54 3°1.608 7.3 330 19.5 101790 76
2004-07-30 08:05:23 51°20.544 3°1.629 7.5 329 19.5 101780 76
2004-07-30 08:05:29 51°20.551 3°1.661 6.6 334 19.5 101780 76
2004-07-30 08:05:34 51°20.557 3°1.688 7.8 330 19.5 101780 76
2004-07-30 08:05:39 51°20.562 3°1.714 7.3 328 19.5 101780 76
2004-07-30 08:05:43 51°20.567 3°1.736 7 330 19.5 101790 76
2004-07-30 08:05:50 51°20.574 3°1.773 6.9 327 19.5 101790 76
2004-07-30 08:05:54 51°20.579 3°1.795 7.5 332 19.5 101780 76
2004-07-30 08:05:59 51°20.584 3°1.822 6.9 332 19.5 101780 76
2004-07-30 08:06:03 51°20.589 3°1.843 7.5 331 19.5 101780 76
2004-07-30 08:06:10 51°20.598 3°1.88 7.8 329 19.5 101780 76
2004-07-30 08:06:14 51°20.603 3°1.901 7.2 330 19.5 101780 76
2004-07-30 08:06:19 51°20.609 3°1.928 6.9 334 19.5 101780 76
2004-07-30 08:06:23 51°20.614 3°1.949 6.5 333 19.5 101790 76
2004-07-30 08:06:29 51°20.621 3°1.981 7.6 329 19.5 101790 76
2004-07-30 08:06:34 51°20.627 3°2.007 7.3 330 19.5 101790 76
2004-07-30 08:06:39 51°20.633 3°2.034 7.2 327 19.5 101790 76
2004-07-30 08:06:45 51°20.64 3°2.066 7.6 326 19.5 101790 76
2004-07-30 08:06:49 51°20.645 3°2.088 7.7 329 19.5 101790 76
2004-07-30 08:06:54 51°20.65 3°2.114 7.1 329 19.5 101790 76
2004-07-30 08:06:59 51°20.656 3°2.142 7 330 19.5 101790 76
2004-07-30 08:07:03 51°20.661 3°2.163 7.6 335 19.5 101780 76
2004-07-30 08:07:09 51°20.668 3°2.195 7.9 332 19.5 101780 76
2004-07-30 08:07:14 51°20.674 3°2.222 7.6 328 19.5 101790 76
2004-07-30 08:07:19 51°20.681 3°2.248 7.4 334 19.5 101790 76
2004-07-30 08:07:23 51°20.686 3°2.269 6.9 331 19.5 101790 76
2004-07-30 08:07:29 51°20.694 3°2.301 7.6 333 19.5 101790 76
2004-07-30 08:07:34 51°20.7 3°2.328 7.1 330 19.5 101790 76
2004-07-30 08:07:39 51°20.706 3°2.355 7.3 329 19.5 101790 76
2004-07-30 08:07:45 51°20.713 3°2.388 7.7 329 19.5 101780 76
2004-07-30 08:07:50 51°20.719 3°2.415 7.9 330 19.5 101780 76
2004-07-30 08:07:54 51°20.724 3°2.436 7.6 330 19.5 101790 76
2004-07-30 08:07:59 51°20.73 3°2.463 6.9 331 19.5 101790 76
2004-07-30 08:08:05 51°20.737 3°2.496 6.8 331 19.5 101790 76
2004-07-30 08:08:09 51°20.742 3°2.517 7.4 329 19.5 101790 76
2004-07-30 08:08:14 51°20.748 3°2.544 7.1 329 19.5 101790 76
2004-07-30 08:08:19 51°20.754 3°2.571 7 330 19.5 101790 76
2004-07-30 08:08:23 51°20.759 3°2.592 7 333 19.6 101790 76
2004-07-30 08:08:29 51°20.766 3°2.624 7.9 328 19.6 101790 76
2004-07-30 08:08:34 51°20.772 3°2.651 7 330 19.5 101790 76
2004-07-30 08:08:39 51°20.779 3°2.678 6.7 331 19.5 101790 76